Latest Weather Observations for Hope Banks Beacon

IDQ60801

Issued at 9:13 pm EST Saturday 9 May 2026 (issued every 10 minutes, with the page automatically refreshed every 10 minutes)

About weather observations | Map of weather stations | Latest weather observations for QLD | Other Formats
Station Details ID: 200897 Name: HOPE BANKS BEACON Lat: -27.43 Lon: 153.29 Height: 7.0 m
Data from the previous 72 hours. | See also: Recent months for locations in Queensland
Date/Time
EST
Temp
°C
App
Temp
°C
Dew
Point
°C
Rel
Hum
%
Delta-T
°C
Wind Press
QNH
hPa
Press
MSL
hPa
Rain since
9am
mm
Dir  Spd
km/h
Gust
km/h
Spd
kts
Gust
kts
09/09:00pm - - - - - S 17 22 9 12 - - -
09/08:30pm - - - - - S 17 19 9 10 - - -
09/08:00pm - - - - - ESE 7 9 4 5 - - -
09/07:30pm - - - - - ESE 11 13 6 7 - - -
09/07:00pm - - - - - ESE 11 13 6 7 - - -
09/06:30pm - - - - - ESE 9 11 5 6 - - -
09/06:00pm - - - - - SE 13 15 7 8 - - -
09/05:30pm - - - - - SE 13 15 7 8 - - -
09/05:00pm - - - - - SE 17 19 9 10 - - -
09/04:30pm - - - - - SE 17 20 9 11 - - -
09/04:00pm - - - - - SE 19 20 10 11 - - -
09/03:30pm - - - - - SSE 19 20 10 11 - - -
09/03:00pm - - - - - SSE 19 24 10 13 - - -
09/02:30pm - - - - - SSE 19 22 10 12 - - -
09/02:00pm - - - - - SSE 17 19 9 10 - - -
09/01:30pm - - - - - SSE 17 20 9 11 - - -
09/01:00pm - - - - - SSE 17 20 9 11 - - -
09/12:30pm - - - - - S 17 22 9 12 - - -
09/12:00pm - - - - - SSW 17 22 9 12 - - -
09/11:30am - - - - - S 17 20 9 11 - - -
09/11:00am - - - - - S 19 22 10 12 - - -
09/10:30am - - - - - S 19 22 10 12 - - -
09/10:00am - - - - - WSW 11 13 6 7 - - -
09/09:30am - - - - - WSW 11 13 6 7 - - -
09/09:00am - - - - - WSW 11 13 6 7 - - -
09/08:30am - - - - - WSW 13 17 7 9 - - -
09/08:00am - - - - - SW 13 17 7 9 - - -
09/07:30am - - - - - WSW 15 19 8 10 - - -
09/07:00am - - - - - WSW 15 17 8 9 - - -
09/06:30am - - - - - WSW 15 17 8 9 - - -
09/06:00am - - - - - WSW 13 15 7 8 - - -
09/05:30am - - - - - WSW 13 15 7 8 - - -
09/05:00am - - - - - SW 15 17 8 9 - - -
09/04:30am - - - - - SW 17 20 9 11 - - -
09/04:00am - - - - - SW 17 19 9 10 - - -
09/03:30am - - - - - WSW 15 17 8 9 - - -
09/03:00am - - - - - WSW 11 15 6 8 - - -
09/02:30am - - - - - SW 11 15 6 8 - - -
09/02:00am - - - - - SW 15 19 8 10 - - -
09/01:30am - - - - - SW 17 19 9 10 - - -
09/01:00am - - - - - WSW 19 20 10 11 - - -
09/12:30am - - - - - WSW 17 20 9 11 - - -
09/12:00am - - - - - WSW 13 15 7 8 - - -
 
Date/Time
EST
Temp
°C
App
Temp
°C
Dew
Point
°C
Rel
Hum
%
Delta-T
°C
Wind Press
QNH
hPa
Press
MSL
hPa
Rain since
9am
mm
Dir  Spd
km/h
Gust
km/h
Spd
kts
Gust
kts
08/11:30pm - - - - - WNW 7 13 4 7 - - -
08/11:00pm - - - - - NW 13 15 7 8 - - -
08/10:30pm - - - - - NW 17 19 9 10 - - -
08/10:00pm - - - - - NW 20 22 11 12 - - -
08/09:30pm - - - - - NW 20 26 11 14 - - -
08/09:00pm - - - - - NW 19 20 10 11 - - -
08/08:30pm - - - - - NNW 17 19 9 10 - - -
08/08:00pm - - - - - N 13 17 7 9 - - -
08/07:30pm - - - - - N 13 19 7 10 - - -
08/07:00pm - - - - - N 13 17 7 9 - - -
08/06:30pm - - - - - N 15 17 8 9 - - -
08/06:00pm - - - - - N 13 17 7 9 - - -
08/05:30pm - - - - - N 13 17 7 9 - - -
08/05:00pm - - - - - NNW 11 15 6 8 - - -
08/04:30pm - - - - - N 9 13 5 7 - - -
08/04:00pm - - - - - N 11 15 6 8 - - -
08/03:30pm - - - - - N 13 17 7 9 - - -
08/03:00pm - - - - - N 15 19 8 10 - - -
08/02:30pm - - - - - N 15 17 8 9 - - -
08/02:00pm - - - - - NNW 9 13 5 7 - - -
08/01:30pm - - - - - NNW 4 6 2 3 - - -
08/01:00pm - - - - - NNW 4 11 2 6 - - -
08/12:30pm - - - - - NNW 4 6 2 3 - - -
08/12:00pm - - - - - NW 6 9 3 5 - - -
08/11:30am - - - - - WNW 7 9 4 5 - - -
08/11:00am - - - - - W 11 13 6 7 - - -
08/10:30am - - - - - W 11 13 6 7 - - -
08/10:00am - - - - - WSW 15 19 8 10 - - -
08/09:30am - - - - - WSW 19 22 10 12 - - -
08/09:00am - - - - - WSW 20 26 11 14 - - -
08/08:30am - - - - - WSW 22 28 12 15 - - -
08/08:00am - - - - - WSW 22 26 12 14 - - -
08/07:30am - - - - - WSW 24 28 13 15 - - -
08/07:00am - - - - - WSW 24 30 13 16 - - -
08/06:30am - - - - - WSW 24 28 13 15 - - -
08/06:00am - - - - - WSW 26 30 14 16 - - -
08/05:30am - - - - - WSW 28 32 15 17 - - -
08/05:00am - - - - - WSW 28 33 15 18 - - -
08/04:30am - - - - - WSW 30 35 16 19 - - -
08/04:00am - - - - - WSW 28 35 15 19 - - -
08/03:30am - - - - - WSW 28 33 15 18 - - -
08/03:00am - - - - - WSW 30 35 16 19 - - -
08/02:30am - - - - - WSW 28 33 15 18 - - -
08/02:00am - - - - - WSW 26 32 14 17 - - -
08/01:30am - - - - - WSW 24 32 13 17 - - -
08/01:00am - - - - - WSW 28 35 15 19 - - -
08/12:30am - - - - - W 30 39 16 21 - - -
08/12:00am - - - - - WSW 20 28 11 15 - - -
 
Date/Time
EST
Temp
°C
App
Temp
°C
Dew
Point
°C
Rel
Hum
%
Delta-T
°C
Wind Press
QNH
hPa
Press
MSL
hPa
Rain since
9am
mm
Dir  Spd
km/h
Gust
km/h
Spd
kts
Gust
kts
07/11:30pm - - - - - WSW 26 30 14 16 - - -
07/11:00pm - - - - - W 20 28 11 15 - - -
07/10:30pm - - - - - W 32 39 17 21 - - -
07/10:00pm - - - - - W 32 41 17 22 - - -
07/09:30pm - - - - - W 28 33 15 18 - - -
07/09:00pm - - - - - W 28 35 15 19 - - -
07/08:30pm - - - - - W 28 39 15 21 - - -
07/08:00pm - - - - - W 26 32 14 17 - - -
07/07:30pm - - - - - WNW 20 26 11 14 - - -
07/07:00pm - - - - - WNW 26 35 14 19 - - -
07/06:30pm - - - - - WNW 32 39 17 21 - - -
07/06:00pm - - - - - WNW 28 33 15 18 - - -
07/05:30pm - - - - - WNW 22 26 12 14 - - -
07/05:00pm - - - - - WNW 24 30 13 16 - - -
07/04:30pm - - - - - W 30 35 16 19 - - -
07/04:00pm - - - - - WNW 26 32 14 17 - - -
07/03:30pm - - - - - NW 19 26 10 14 - - -
07/03:00pm - - - - - WNW 17 22 9 12 - - -
07/02:30pm - - - - - WNW 22 26 12 14 - - -
07/02:00pm - - - - - WNW 19 24 10 13 - - -
07/01:30pm - - - - - NNW 17 20 9 11 - - -
07/01:00pm - - - - - NNW 17 22 9 12 - - -
07/12:30pm - - - - - NW 13 15 7 8 - - -
07/12:00pm - - - - - NW 17 19 9 10 - - -
07/11:30am - - - - - WNW 17 19 9 10 - - -
07/11:00am - - - - - WNW 17 20 9 11 - - -
07/10:30am - - - - - WNW 17 19 9 10 - - -
07/10:00am - - - - - WNW 17 20 9 11 - - -
07/09:30am - - - - - W 19 24 10 13 - - -
07/09:00am - - - - - W 17 20 9 11 - - -
07/08:30am - - - - - W 13 17 7 9 - - -
07/08:00am - - - - - WSW 15 17 8 9 - - -
07/07:30am - - - - - WSW 13 17 7 9 - - -
07/07:00am - - - - - WSW 19 22 10 12 - - -
07/06:30am - - - - - WSW 19 24 10 13 - - -
07/06:00am - - - - - WSW 17 19 9 10 - - -
07/05:30am - - - - - W 13 15 7 8 - - -
07/05:00am - - - - - WSW 15 17 8 9 - - -
07/04:30am - - - - - W 13 15 7 8 - - -
07/04:00am - - - - - WSW 15 19 8 10 - - -
07/03:30am - - - - - SW 15 17 8 9 - - -
07/03:00am - - - - - WSW 17 20 9 11 - - -
07/02:30am - - - - - W 13 15 7 8 - - -
07/02:00am - - - - - W 9 11 5 6 - - -
07/01:30am - - - - - W 11 13 6 7 - - -
07/01:00am - - - - - W 9 11 5 6 - - -
07/12:30am - - - - - SSW 15 17 8 9 - - -
07/12:00am - - - - - S 13 17 7 9 - - -
 
Date/Time
EST
Temp
°C
App
Temp
°C
Dew
Point
°C
Rel
Hum
%
Delta-T
°C
Wind Press
QNH
hPa
Press
MSL
hPa
Rain since
9am
mm
Dir  Spd
km/h
Gust
km/h
Spd
kts
Gust
kts
06/11:30pm - - - - - SSW 13 15 7 8 - - -
06/11:00pm - - - - - S 15 17 8 9 - - -
06/10:30pm - - - - - S 11 15 6 8 - - -
06/10:00pm - - - - - S 13 17 7 9 - - -
06/09:30pm - - - - - S 15 19 8 10 - - -

Other formats

Comma delimited format used in spreadsheet applications
http://www.bom.gov.au/fwo/IDQ60801/IDQ60801.99497.axf

JavaScript Object Notation format (JSON) in row-major order
http://www.bom.gov.au/fwo/IDQ60801/IDQ60801.99497.json

Data quality

Most of these data are generated automatically and are frequently updated. Quality checks on data are not normally performed. It is possible for incorrect values to appear. Refer to information at About Latest Weather Observations and please check the disclaimer before using these data.